Time;durP1;ratioP1;P1;durP2;ratioP2;P2;SDS_P1;SDS_P2;PMS_P1;PMS_P2;Temp;Humidity;BMP_temperature;BMP_pressure;BME280_temperature;BME280_humidity;BME280_pressure;Samples;Min_cycle;Max_cycle;Signal;HPM_P1;HPM_P2
2022/07/13 00:00:48;;;;;;;0.73;0.73;;;;;;;13.78;100.00;101312.00;5029778;28;20843;-71
2022/07/13 00:03:15;;;;;;;0.70;0.70;;;;;;;13.75;100.00;101306.84;5028442;28;20208;-71
2022/07/13 00:05:41;;;;;;;0.80;0.80;;;;;;;13.76;100.00;101305.94;5025204;28;20208;-71
2022/07/13 00:08:07;;;;;;;1.10;1.00;;;;;;;13.71;100.00;101299.13;5037219;28;20573;-71
2022/07/13 00:10:34;;;;;;;2.20;1.10;;;;;;;13.66;100.00;101304.50;5030754;28;20265;-71
2022/07/13 00:13:00;;;;;;;0.97;0.90;;;;;;;13.69;100.00;101299.16;5026586;28;20608;-71
2022/07/13 00:15:28;;;;;;;1.13;1.03;;;;;;;13.68;100.00;101293.97;5032926;28;20200;-71
2022/07/13 00:17:54;;;;;;;0.90;0.67;;;;;;;13.71;100.00;101294.75;5033274;28;20196;-71
2022/07/13 00:20:21;;;;;;;0.80;0.80;;;;;;;13.58;100.00;101306.50;5018566;28;20224;-71
2022/07/13 00:22:47;;;;;;;1.43;0.90;;;;;;;13.53;100.00;101297.91;5029287;28;20594;-71
2022/07/13 00:25:14;;;;;;;0.70;0.70;;;;;;;13.57;100.00;101296.91;5035702;28;20196;-71
2022/07/13 00:27:40;;;;;;;0.90;0.90;;;;;;;13.51;100.00;101291.81;5019218;28;20206;-71
2022/07/13 00:30:08;;;;;;;1.10;1.00;;;;;;;13.43;100.00;101290.25;5007753;28;20420;-71
2022/07/13 00:32:36;;;;;;;3.00;1.10;;;;;;;13.41;100.00;101291.22;5016269;28;20705;-71
2022/07/13 00:35:03;;;;;;;1.00;0.83;;;;;;;13.43;100.00;101295.50;5020273;28;20670;-71
2022/07/13 00:37:30;;;;;;;1.33;1.10;;;;;;;13.37;100.00;101294.84;5028923;28;20212;-71
2022/07/13 00:39:57;;;;;;;2.27;1.30;;;;;;;13.37;100.00;101287.84;5012724;28;20203;-71
2022/07/13 00:42:24;;;;;;;1.07;0.87;;;;;;;13.36;100.00;101285.25;5022288;28;20219;-71
2022/07/13 00:44:51;;;;;;;1.37;1.00;;;;;;;13.31;100.00;101287.09;5008264;28;20201;-71
2022/07/13 00:47:18;;;;;;;1.83;1.00;;;;;;;13.27;100.00;101289.78;5014646;28;20191;-71
2022/07/13 00:49:46;;;;;;;0.80;0.80;;;;;;;13.22;100.00;101272.50;5024968;28;20577;-71
2022/07/13 00:52:13;;;;;;;1.33;0.90;;;;;;;13.21;100.00;101283.88;5029327;28;20220;-71
2022/07/13 00:54:43;;;;;;;1.70;1.20;;;;;;;13.17;100.00;101277.84;5024257;28;20199;-71
2022/07/13 00:57:12;;;;;;;1.13;0.90;;;;;;;13.07;100.00;101282.47;5010631;28;20226;-71
2022/07/13 00:59:39;;;;;;;1.13;0.90;;;;;;;13.17;100.00;101272.59;5025605;28;20608;-71
2022/07/13 01:02:05;;;;;;;1.20;1.00;;;;;;;13.11;100.00;101266.69;5027343;28;20310;-71
2022/07/13 01:04:32;;;;;;;0.90;0.90;;;;;;;13.05;100.00;101273.81;5009611;28;20388;-71
2022/07/13 01:07:00;;;;;;;0.90;0.90;;;;;;;13.06;100.00;101272.88;5025882;28;20701;-71
2022/07/13 01:09:27;;;;;;;0.87;0.80;;;;;;;13.05;100.00;101273.81;5035318;28;20191;-71
2022/07/13 01:11:53;;;;;;;0.77;0.77;;;;;;;12.96;100.00;101274.03;5014784;28;20239;-71
2022/07/13 01:14:20;;;;;;;1.23;1.13;;;;;;;12.92;100.00;101268.94;5013669;28;20965;-71
2022/07/13 01:16:47;;;;;;;0.80;0.80;;;;;;;12.92;100.00;101266.31;5027131;28;20228;-71
2022/07/13 01:19:14;;;;;;;1.00;0.90;;;;;;;12.93;100.00;101270.63;5024313;28;20206;-71
2022/07/13 01:21:42;;;;;;;1.27;0.83;;;;;;;12.86;100.00;101262.09;5019452;28;20585;-71
2022/07/13 01:24:10;;;;;;;0.80;0.80;;;;;;;12.95;100.00;101255.78;5031719;28;20632;-71
2022/07/13 01:26:38;;;;;;;1.00;0.90;;;;;;;12.97;100.00;101252.19;5012009;28;20205;-71
2022/07/13 01:29:04;;;;;;;1.37;1.10;;;;;;;12.96;100.00;101255.69;5014445;28;20202;-71
2022/07/13 01:31:38;;;;;;;1.10;1.00;;;;;;;12.98;100.00;101255.66;5026605;28;20256;-71
2022/07/13 01:34:06;;;;;;;1.10;1.00;;;;;;;12.99;100.00;101246.94;5035193;28;20597;-71
2022/07/13 01:36:32;;;;;;;1.07;1.00;;;;;;;12.98;100.00;101256.53;5026600;28;20216;-71
2022/07/13 01:38:59;;;;;;;1.10;1.00;;;;;;;13.08;100.00;101252.75;5018569;28;20590;-71
2022/07/13 01:41:28;;;;;;;1.20;1.00;;;;;;;13.11;100.00;101251.84;5007077;28;20220;-71
2022/07/13 01:43:54;;;;;;;1.10;0.90;;;;;;;13.18;100.00;101249.91;5009273;28;20215;-72
2022/07/13 01:46:21;;;;;;;0.90;0.90;;;;;;;13.24;100.00;101261.09;5015188;28;20209;-71
2022/07/13 01:48:47;;;;;;;1.10;1.00;;;;;;;13.30;100.00;101248.72;5034464;28;20207;-72
2022/07/13 01:51:13;;;;;;;1.07;0.97;;;;;;;13.31;100.00;101238.22;5022800;28;20233;-71
2022/07/13 01:53:40;;;;;;;1.30;1.00;;;;;;;13.35;100.00;101242.50;5028211;28;20211;-71
2022/07/13 01:56:07;;;;;;;1.33;1.00;;;;;;;13.43;100.00;101237.88;5014561;28;20212;-71
2022/07/13 01:58:34;;;;;;;0.93;0.90;;;;;;;13.40;100.00;101238.00;5009155;28;20556;-71
2022/07/13 02:01:01;;;;;;;1.20;0.90;;;;;;;13.41;100.00;101234.44;5026303;28;20227;-71
2022/07/13 02:03:29;;;;;;;0.90;0.90;;;;;;;13.47;100.00;101232.56;5016238;28;20195;-71
2022/07/13 02:05:56;;;;;;;0.90;0.90;;;;;;;13.54;100.00;101234.94;5029960;28;20566;-71
2022/07/13 02:08:26;;;;;;;1.27;0.90;;;;;;;13.56;100.00;101234.91;5003202;28;20202;-71
2022/07/13 02:10:52;;;;;;;2.30;1.10;;;;;;;13.55;100.00;101230.59;5003979;28;20263;-71
2022/07/13 02:13:21;;;;;;;1.17;0.90;;;;;;;13.62;100.00;101226.88;5017757;28;20694;-71
2022/07/13 02:15:50;;;;;;;0.97;0.90;;;;;;;13.69;100.00;101220.56;5008036;28;20209;-71
2022/07/13 02:18:18;;;;;;;1.10;1.00;;;;;;;13.70;100.00;101221.41;5009064;28;20274;-71
2022/07/13 02:20:45;;;;;;;1.17;1.00;;;;;;;13.77;100.00;101221.19;5012441;28;20227;-71
2022/07/13 02:23:11;;;;;;;1.03;0.97;;;;;;;13.74;100.00;101216.03;5016666;28;20658;-71
2022/07/13 02:25:38;;;;;;;1.00;0.90;;;;;;;13.74;100.00;101218.66;5016219;28;20347;-71
2022/07/13 02:28:06;;;;;;;1.20;1.10;;;;;;;13.86;100.00;101201.72;5025836;28;20803;-71
2022/07/13 02:30:33;;;;;;;0.87;0.83;;;;;;;13.86;100.00;101201.72;4997620;28;20346;-71
2022/07/13 02:33:01;;;;;;;1.27;1.17;;;;;;;13.86;100.00;101195.59;5014014;28;20203;-71
2022/07/13 02:35:27;;;;;;;0.90;0.87;;;;;;;13.83;100.00;101205.28;5027241;28;20198;-71
2022/07/13 02:37:54;;;;;;;0.97;0.93;;;;;;;13.88;100.00;101199.91;5010151;28;20201;-71
2022/07/13 02:40:21;;;;;;;0.93;0.90;;;;;;;13.93;100.00;101207.59;5008060;28;20217;-71
2022/07/13 02:42:47;;;;;;;0.90;0.90;;;;;;;13.97;100.00;101210.09;5028299;28;20211;-71
2022/07/13 02:45:14;;;;;;;2.07;1.00;;;;;;;14.04;100.00;101207.31;4999759;28;20200;-71
2022/07/13 02:47:40;;;;;;;1.10;1.00;;;;;;;14.07;100.00;101210.69;5023480;28;20574;-71
2022/07/13 02:50:08;;;;;;;1.10;0.97;;;;;;;14.02;100.00;101213.44;5039313;28;20195;-71
2022/07/13 02:52:37;;;;;;;1.23;0.90;;;;;;;14.06;100.00;101213.34;5007384;28;20283;-71
2022/07/13 02:55:03;;;;;;;1.40;0.93;;;;;;;14.06;100.00;101213.34;5006508;28;20678;-71
2022/07/13 02:57:31;;;;;;;0.87;0.87;;;;;;;14.12;100.00;101216.63;5009130;28;20284;-73
2022/07/13 03:00:00;;;;;;;1.20;1.00;;;;;;;14.11;100.00;101221.94;5005953;28;20200;-71
2022/07/13 03:02:27;;;;;;;2.87;1.13;;;;;;;14.13;100.00;101212.25;5009523;28;20564;-71
2022/07/13 03:04:53;;;;;;;1.10;1.00;;;;;;;14.07;100.00;101208.06;5007148;28;20212;-71
2022/07/13 03:07:21;;;;;;;1.13;1.03;;;;;;;14.15;100.00;101206.03;5010809;28;20191;-71
2022/07/13 03:09:47;;;;;;;0.73;0.73;;;;;;;14.12;100.00;101206.13;5007360;28;20564;-71
2022/07/13 03:12:14;;;;;;;1.37;1.00;;;;;;;14.14;100.00;101206.06;5015152;28;20219;-71
2022/07/13 03:14:40;;;;;;;1.30;1.00;;;;;;;14.13;100.00;101197.38;5011140;28;20198;-71
2022/07/13 03:17:07;;;;;;;2.40;1.20;;;;;;;14.11;100.00;101201.81;5008806;28;20219;-71
2022/07/13 03:19:33;;;;;;;0.80;0.77;;;;;;;14.16;100.00;101197.28;5022753;28;20224;-71
2022/07/13 03:22:03;;;;;;;1.83;1.07;;;;;;;14.19;100.00;101197.19;5009392;28;20791;-71
2022/07/13 03:24:31;;;;;;;1.40;1.20;;;;;;;14.20;100.00;101198.88;5006138;28;20307;-71
2022/07/13 03:26:59;;;;;;;1.40;1.30;;;;;;;14.23;100.00;101195.31;5004031;28;20323;-71
2022/07/13 03:29:26;;;;;;;1.37;1.10;;;;;;;14.25;100.00;101197.88;5009758;28;20196;-71
2022/07/13 03:31:53;;;;;;;1.33;1.20;;;;;;;14.30;100.00;101195.94;5004249;28;20219;-71
2022/07/13 03:34:19;;;;;;;2.37;1.37;;;;;;;14.32;100.00;101204.66;5030433;28;21026;-71
2022/07/13 03:36:47;;;;;;;1.07;0.90;;;;;;;14.30;100.00;101206.44;5016497;28;20257;-71
2022/07/13 03:39:14;;;;;;;2.77;1.13;;;;;;;14.32;100.00;101207.28;5001329;28;20242;-71
2022/07/13 03:41:43;;;;;;;2.07;1.07;;;;;;;14.34;100.00;101214.19;5012901;28;21033;-71
2022/07/13 03:44:12;;;;;;;1.77;1.33;;;;;;;14.38;100.00;101210.53;5012701;28;20265;-71
2022/07/13 03:46:40;;;;;;;2.90;1.30;;;;;;;14.39;100.00;101204.38;5001258;28;20210;-71
2022/07/13 03:49:06;;;;;;;1.47;1.17;;;;;;;14.45;100.00;101205.09;5030229;28;20291;-71
2022/07/13 03:51:33;;;;;;;1.47;1.30;;;;;;;14.47;100.00;101205.91;5013637;28;20223;-72
2022/07/13 03:54:00;;;;;;;1.40;1.30;;;;;;;14.51;100.00;101202.25;5007203;28;20203;-71
2022/07/13 03:56:26;;;;;;;1.20;1.10;;;;;;;14.58;100.00;101209.03;5007541;28;20196;-71
2022/07/13 03:58:55;;;;;;;1.77;1.20;;;;;;;14.61;100.00;101208.94;5028196;28;20207;-71
2022/07/13 04:01:22;;;;;;;3.00;1.10;;;;;;;14.68;100.00;101204.34;5014633;28;20231;-71
2022/07/13 04:03:51;;;;;;;1.00;0.90;;;;;;;14.73;100.00;101207.69;5006516;28;20244;-71
2022/07/13 04:06:19;;;;;;;1.03;0.93;;;;;;;14.83;100.00;101205.59;5016539;28;20195;-71
2022/07/13 04:08:46;;;;;;;1.20;1.10;;;;;;;14.87;100.00;101207.22;5013567;28;20215;-71
2022/07/13 04:11:13;;;;;;;3.27;1.10;;;;;;;14.95;100.00;101205.16;5006448;28;20276;-71
2022/07/13 04:13:40;;;;;;;1.00;1.00;;;;;;;14.99;100.00;101204.16;5015435;28;20224;-71
2022/07/13 04:16:08;;;;;;;1.33;1.00;;;;;;;15.05;100.00;101206.56;5025624;28;20227;-71
2022/07/13 04:18:37;;;;;;;1.20;1.10;;;;;;;15.09;100.00;101197.66;5005337;28;20191;-71
2022/07/13 04:21:04;;;;;;;1.20;1.10;;;;;;;15.14;100.00;101205.38;5011078;28;20586;-71
2022/07/13 04:23:31;;;;;;;1.47;1.23;;;;;;;15.20;100.00;101207.78;5019286;28;20584;-71
2022/07/13 04:25:58;;;;;;;1.07;0.97;;;;;;;15.27;100.00;101203.19;5005318;28;20198;-71
2022/07/13 04:28:25;;;;;;;1.07;0.83;;;;;;;15.26;100.00;101204.06;5012388;28;20675;-71
2022/07/13 04:30:52;;;;;;;1.37;1.00;;;;;;;15.33;100.00;101206.41;5020531;28;21673;-71
2022/07/13 04:33:22;;;;;;;0.90;0.90;;;;;;;15.39;100.00;101205.34;5025362;28;20225;-71
2022/07/13 04:35:48;;;;;;;0.87;0.87;;;;;;;15.43;100.00;101200.84;5012824;28;20454;-71
2022/07/13 04:38:15;;;;;;;0.90;0.90;;;;;;;15.51;100.00;101206.63;5017305;28;20200;-71
2022/07/13 04:40:41;;;;;;;0.83;0.83;;;;;;;15.52;100.00;101205.75;5014304;28;20217;-71
2022/07/13 04:43:08;;;;;;;1.00;0.90;;;;;;;15.59;100.00;101201.13;5033017;28;20224;-71
2022/07/13 04:45:34;;;;;;;1.20;1.10;;;;;;;15.62;100.00;101199.22;5018482;28;20207;-71
2022/07/13 04:48:01;;;;;;;1.20;1.10;;;;;;;15.64;100.00;101199.19;5009608;28;20290;-71
2022/07/13 04:50:32;;;;;;;1.13;1.00;;;;;;;15.71;100.00;101192.75;5015358;28;20250;-71
2022/07/13 04:53:00;;;;;;;1.07;0.90;;;;;;;15.78;100.00;101196.06;5013099;28;20291;-71
2022/07/13 04:55:28;;;;;;;1.10;1.00;;;;;;;15.73;100.00;101204.06;5003185;28;20452;-71
2022/07/13 04:57:56;;;;;;;1.27;0.93;;;;;;;15.80;100.00;101204.72;5023548;28;20256;-71
2022/07/13 05:00:23;;;;;;;1.73;1.20;;;;;;;15.88;100.00;101210.53;5027087;28;20269;-71
2022/07/13 05:02:49;;;;;;;2.30;1.30;;;;;;;15.91;100.00;101210.41;5028251;28;20214;-71
2022/07/13 05:05:16;;;;;;;1.87;1.10;;;;;;;16.01;100.00;101210.91;5008415;28;20816;-71
2022/07/13 05:07:44;;;;;;;1.57;1.13;;;;;;;16.07;100.00;101203.63;5007446;28;20313;-71
2022/07/13 05:10:13;;;;;;;1.10;1.00;;;;;;;16.12;100.00;101197.34;5009216;28;20220;-72
2022/07/13 05:12:43;;;;;;;1.20;1.10;;;;;;;16.18;100.00;101202.34;5070510;23;20230;-74
2022/07/13 05:15:11;;;;;;;0.80;0.80;;;;;;;16.20;100.00;101204.00;5070570;28;20783;-75
2022/07/13 05:17:39;;;;;;;1.30;1.10;;;;;;;16.29;99.94;101205.41;5047934;28;20206;-75
2022/07/13 05:20:08;;;;;;;1.20;0.93;;;;;;;16.35;99.44;101204.28;5048071;28;20202;-74
2022/07/13 05:22:38;;;;;;;2.30;1.00;;;;;;;16.43;100.00;101200.44;5046865;28;20226;-75
2022/07/13 05:25:06;;;;;;;1.20;1.10;;;;;;;16.53;98.55;101208.78;5050935;28;20317;-75
2022/07/13 05:27:33;;;;;;;0.80;0.80;;;;;;;16.64;98.13;101203.09;5050343;28;20256;-75
2022/07/13 05:30:00;;;;;;;4.10;1.10;;;;;;;16.75;97.56;101200.84;5051090;28;20206;-75
2022/07/13 05:32:26;;;;;;;0.93;0.90;;;;;;;16.86;97.37;101204.84;5050354;28;20689;-75
2022/07/13 05:34:54;;;;;;;1.23;1.13;;;;;;;16.93;97.23;101199.22;5050918;28;20218;-75
2022/07/13 05:37:21;;;;;;;0.90;0.90;;;;;;;17.02;95.52;101206.72;5050604;28;20818;-75
2022/07/13 05:39:48;;;;;;;1.20;1.10;;;;;;;17.14;94.56;101213.22;5069480;28;20284;-74
2022/07/13 05:42:17;;;;;;;1.30;1.00;;;;;;;17.29;95.06;101213.47;5048921;28;20561;-75
2022/07/13 05:44:44;;;;;;;1.03;1.00;;;;;;;17.34;91.58;101222.91;5036615;28;20222;-75
2022/07/13 05:47:10;;;;;;;0.90;0.90;;;;;;;17.40;88.37;101225.25;5050539;28;20217;-75
2022/07/13 05:49:37;;;;;;;1.20;1.10;;;;;;;17.48;89.45;101230.16;5051073;28;20240;-75
2022/07/13 05:52:05;;;;;;;0.83;0.80;;;;;;;17.55;87.95;101225.47;5047439;28;20231;-75
2022/07/13 05:54:35;;;;;;;0.90;0.90;;;;;;;17.64;87.88;101221.56;5044631;28;20740;-75
2022/07/13 05:57:02;;;;;;;4.00;1.10;;;;;;;17.74;86.59;101222.84;5061968;28;20199;-75
2022/07/13 05:59:29;;;;;;;0.97;0.87;;;;;;;17.81;85.40;101221.63;5067819;28;20581;-76
2022/07/13 06:01:56;;;;;;;3.10;1.20;;;;;;;17.96;87.41;101220.09;5049496;28;20287;-75
2022/07/13 06:04:22;;;;;;;1.07;1.00;;;;;;;18.04;86.51;101225.00;5067506;28;20214;-75
2022/07/13 06:06:48;;;;;;;0.80;0.80;;;;;;;18.11;83.09;101224.59;5068437;28;20209;-75
2022/07/13 06:09:15;;;;;;;0.70;0.70;;;;;;;18.22;83.10;101225.88;5068922;28;20590;-75
2022/07/13 06:11:41;;;;;;;1.07;1.00;;;;;;;18.33;83.59;101220.94;5068522;28;20229;-75
2022/07/13 06:14:08;;;;;;;0.87;0.83;;;;;;;18.46;82.61;101216.75;5068523;28;20198;-75
2022/07/13 06:16:35;;;;;;;0.90;0.90;;;;;;;18.56;80.29;101217.16;5050300;28;20254;-75
2022/07/13 06:19:02;;;;;;;1.43;0.90;;;;;;;18.68;79.10;101218.31;5068624;28;20194;-75
2022/07/13 06:21:28;;;;;;;1.10;1.00;;;;;;;18.85;81.79;101220.13;5059480;28;20248;-75
2022/07/13 06:23:55;;;;;;;1.50;1.20;;;;;;;18.94;78.81;101224.09;5068103;28;20610;-75
2022/07/13 06:26:21;;;;;;;0.87;0.87;;;;;;;19.09;78.48;101232.06;5067946;28;20567;-75
2022/07/13 06:28:48;;;;;;;1.10;1.00;;;;;;;19.22;77.43;101226.97;5066553;28;20202;-75
2022/07/13 06:31:14;;;;;;;5.67;1.20;;;;;;;19.36;78.67;101233.34;5062112;28;20194;-75
2022/07/13 06:33:42;;;;;;;1.10;1.00;;;;;;;19.44;75.62;101226.69;5055169;28;20549;-75
2022/07/13 06:36:09;;;;;;;1.17;1.07;;;;;;;19.56;76.29;101225.19;5044442;28;20222;-75
2022/07/13 06:38:35;;;;;;;0.70;0.70;;;;;;;19.70;76.03;101234.16;5047266;28;20186;-75
2022/07/13 06:41:01;;;;;;;1.40;1.17;;;;;;;19.83;77.26;101217.56;5067936;28;20248;-75
2022/07/13 06:43:28;;;;;;;1.83;1.00;;;;;;;19.98;75.43;101231.72;5065349;28;20211;-75
2022/07/13 06:45:54;;;;;;;1.13;0.97;;;;;;;20.10;73.14;101238.09;5065823;28;20708;-76
2022/07/13 06:48:20;;;;;;;1.53;1.03;;;;;;;20.14;72.19;101226.44;5066798;28;20222;-75
2022/07/13 06:50:48;;;;;;;1.17;1.00;;;;;;;20.28;72.99;101235.34;5049043;28;20191;-75
2022/07/13 06:53:14;;;;;;;1.10;1.00;;;;;;;20.52;73.29;101231.28;5061256;28;20199;-75
2022/07/13 06:55:41;;;;;;;1.00;0.90;;;;;;;20.77;71.69;101228.09;5066017;28;20214;-75
2022/07/13 06:58:07;;;;;;;1.40;1.00;;;;;;;21.13;70.56;101229.47;5054130;28;20226;-75
2022/07/13 07:00:34;;;;;;;1.00;0.90;;;;;;;21.41;68.58;101227.78;5062560;28;20215;-75
2022/07/13 07:03:00;;;;;;;0.80;0.80;;;;;;;21.47;68.89;101223.91;5068374;28;20289;-76
2022/07/13 07:05:27;;;;;;;0.97;0.90;;;;;;;21.57;67.31;101221.53;5054168;28;20211;-75
2022/07/13 07:07:55;;;;;;;1.23;1.05;;;;;;;21.64;65.85;101229.00;5065560;28;20191;-75
2022/07/13 07:10:21;;;;;;;1.47;1.20;;;;;;;21.80;68.27;101220.94;5059194;28;20205;-76
2022/07/13 07:12:47;;;;;;;0.90;0.85;;;;;;;21.90;66.83;101226.50;5068087;28;20293;-75
2022/07/13 07:15:14;;;;;;;1.63;1.10;;;;;;;22.04;65.99;101234.44;5058410;28;20222;-76
2022/07/13 07:17:44;;;;;;;1.20;1.10;;;;;;;22.16;67.45;101231.91;5075674;28;20193;-76
2022/07/13 07:20:11;;;;;;;1.73;1.10;;;;;;;22.27;65.48;101226.81;5062600;28;20587;-76
2022/07/13 07:22:38;;;;;;;0.85;0.85;;;;;;;22.41;66.05;101215.22;5068495;28;20218;-76
2022/07/13 07:25:07;;;;;;;1.02;0.95;;;;;;;22.44;62.86;101218.56;5070335;28;20238;-76
2022/07/13 07:27:33;;;;;;;1.02;0.95;;;;;;;22.47;61.78;101223.66;5061550;28;20209;-76
2022/07/13 07:30:00;;;;;;;1.15;1.02;;;;;;;22.63;62.70;101219.97;5073861;28;20561;-75
2022/07/13 07:32:26;;;;;;;1.05;0.98;;;;;;;22.68;62.35;101209.88;5079621;28;20260;-75
2022/07/13 07:34:52;;;;;;;1.42;1.10;;;;;;;22.76;62.75;101202.25;5065809;28;20217;-76
2022/07/13 07:37:20;;;;;;;0.73;0.73;;;;;;;22.89;64.94;101204.91;5068535;28;20214;-75
2022/07/13 07:39:47;;;;;;;1.10;0.90;;;;;;;22.94;59.76;101207.25;5081737;28;20761;-75
2022/07/13 07:42:14;;;;;;;1.38;1.20;;;;;;;22.96;59.96;101213.31;5061654;28;20198;-75
2022/07/13 07:44:41;;;;;;;0.98;0.82;;;;;;;22.90;59.00;101206.59;5051776;28;20221;-76
2022/07/13 07:47:08;;;;;;;0.98;0.90;;;;;;;22.98;58.23;101211.38;5050077;28;20663;-76
2022/07/13 07:49:35;;;;;;;1.00;0.90;;;;;;;23.04;57.57;101217.13;5070920;28;20199;-76
2022/07/13 07:52:01;;;;;;;1.00;1.00;;;;;;;23.15;58.92;101211.09;5060024;28;20195;-75
2022/07/13 07:54:28;;;;;;;1.00;0.90;;;;;;;23.15;57.77;101205.78;5055499;28;20202;-76
2022/07/13 07:56:54;;;;;;;1.17;0.95;;;;;;;23.23;57.82;101208.72;5065956;28;20194;-76
2022/07/13 07:59:22;;;;;;;1.27;1.08;;;;;;;23.42;58.53;101199.47;5066736;28;20679;-75
2022/07/13 08:01:48;;;;;;;1.02;1.00;;;;;;;23.56;59.81;101203.81;5059100;28;20203;-77
2022/07/13 08:04:15;;;;;;;0.93;0.90;;;;;;;23.78;58.81;101198.63;5063507;28;20218;-76
2022/07/13 08:06:42;;;;;;;1.20;1.10;;;;;;;23.91;56.47;101205.75;5065355;28;20558;-75
2022/07/13 08:09:08;;;;;;;0.70;0.70;;;;;;;24.03;54.97;101198.66;5064581;28;20194;-77
2022/07/13 08:11:35;;;;;;;2.97;1.10;;;;;;;24.21;56.23;101199.13;5065921;28;20211;-76
2022/07/13 08:14:01;;;;;;;1.10;1.00;;;;;;;24.33;55.65;101198.19;5066138;28;20204;-76
2022/07/13 08:16:29;;;;;;;1.00;0.90;;;;;;;24.41;55.99;101203.78;5042945;28;20219;-77
2022/07/13 08:18:56;;;;;;;2.67;0.80;;;;;;;24.48;57.17;101189.03;5061413;28;20201;-76
2022/07/13 08:21:22;;;;;;;0.88;0.88;;;;;;;24.68;55.54;101192.88;5061738;28;20206;-76
2022/07/13 08:23:55;;;;;;;1.52;0.93;;;;;;;24.69;54.51;101189.22;5060513;28;20265;-76
2022/07/13 08:26:23;;;;;;;3.45;1.20;;;;;;;24.80;54.71;101185.75;5062088;28;20217;-76
2022/07/13 08:28:50;;;;;;;1.08;0.98;;;;;;;24.91;54.15;101188.44;5067038;28;20256;-75
2022/07/13 08:31:16;;;;;;;1.30;1.10;;;;;;;25.01;52.75;101185.91;5061990;28;20202;-76
2022/07/13 08:39:13;;;;;;;0.90;0.90;;;;;;;25.34;52.77;101164.69;5064368;28;20206;-76
2022/07/13 08:41:40;;;;;;;0.98;0.93;;;;;;;25.53;51.61;101156.91;5065123;28;20584;-77
2022/07/13 08:44:06;;;;;;;1.40;1.00;;;;;;;25.67;53.17;101161.13;5070812;28;20214;-76
2022/07/13 08:46:33;;;;;;;0.70;0.70;;;;;;;25.68;50.48;101161.00;5063730;28;20230;-77
2022/07/13 08:49:02;;;;;;;0.88;0.80;;;;;;;25.68;48.35;101169.00;5059671;28;20292;-76
2022/07/13 08:51:30;;;;;;;1.08;0.93;;;;;;;25.82;47.51;101170.56;5062089;28;20459;-76
2022/07/13 08:53:57;;;;;;;1.23;0.80;;;;;;;26.02;51.83;101166.25;5067147;28;20205;-76
2022/07/13 08:56:24;;;;;;;0.85;0.80;;;;;;;26.17;49.56;101164.09;5068016;28;20581;-76
2022/07/13 08:58:52;;;;;;;0.80;0.80;;;;;;;26.16;48.23;101154.41;5064164;28;20206;-77
2022/07/13 09:01:19;;;;;;;1.00;0.90;;;;;;;26.22;47.92;101159.22;5065190;28;20187;-76
2022/07/13 09:03:46;;;;;;;0.90;0.77;;;;;;;26.22;46.59;101159.22;5060838;28;20206;-76
2022/07/13 09:06:45;;;;;;;0.85;0.70;;;;;;;26.30;46.19;101163.09;5065140;28;20533;-77
2022/07/13 09:09:27;;;;;;;0.80;0.80;;;;;;;26.25;43.77;101167.00;5062344;28;20195;-76
2022/07/13 09:11:53;;;;;;;0.80;0.80;;;;;;;26.28;44.65;101155.22;5060796;28;20789;-76
2022/07/13 09:14:26;;;;;;;1.00;0.80;;;;;;;26.29;43.89;101158.72;5062390;28;20273;-76
2022/07/13 09:16:52;;;;;;;0.70;0.70;;;;;;;26.45;43.77;101161.78;5063130;28;20209;-77
2022/07/13 09:19:24;;;;;;;0.82;0.80;;;;;;;26.60;44.13;101157.81;5063376;28;20205;-76
2022/07/13 09:22:07;;;;;;;1.75;0.77;;;;;;;26.82;42.96;101155.97;5064924;28;20233;-75
2022/07/13 09:24:42;;;;;;;0.95;0.95;;;;;;;26.87;42.31;101153.75;5035857;28;20221;-77
2022/07/13 09:27:09;;;;;;;0.88;0.88;;;;;;;27.01;43.56;101156.06;5062402;28;20211;-76
2022/07/13 09:29:36;;;;;;;1.70;0.82;;;;;;;27.14;42.48;101157.66;5046423;28;20569;-77
2022/07/13 09:32:06;;;;;;;0.88;0.88;;;;;;;27.38;41.71;101162.72;5063270;28;20203;-76
2022/07/13 09:34:54;;;;;;;0.52;0.52;;;;;;;27.40;40.13;101152.72;5062372;28;20293;-76
2022/07/13 09:37:24;;;;;;;0.47;0.47;;;;;;;27.30;39.57;101150.03;5063478;28;20235;-75
2022/07/13 09:39:59;;;;;;;0.63;0.60;;;;;;;27.27;36.82;101162.81;5063587;28;20600;-76
2022/07/13 09:42:26;;;;;;;0.60;0.60;;;;;;;27.19;36.10;101156.31;5061295;28;20225;-76
2022/07/13 09:47:21;;;;;;;0.40;0.40;;;;;;;27.40;39.04;101139.31;5067547;28;20221;-75
2022/07/13 09:49:54;;;;;;;0.60;0.60;;;;;;;27.56;38.49;101136.13;5071283;28;20266;-73
2022/07/13 09:52:31;;;;;;;0.50;0.50;;;;;;;27.68;37.79;101132.31;5045410;28;20241;-74
2022/07/13 09:55:00;;;;;;;0.50;0.50;;;;;;;27.65;38.64;101137.13;5064669;28;20212;-74
2022/07/13 09:57:29;;;;;;;0.60;0.60;;;;;;;27.58;36.84;101142.16;5066767;28;20254;-75
2022/07/13 10:02:35;;;;;;;0.65;0.65;;;;;;;27.77;37.05;101130.66;5011625;28;20214;-74
2022/07/13 10:05:01;;;;;;;0.95;0.80;;;;;;;27.91;38.54;101124.91;5024307;28;20216;-74
2022/07/13 10:07:32;;;;;;;0.60;0.60;;;;;;;27.97;38.00;101126.19;5023745;28;20211;-74
2022/07/13 10:09:58;;;;;;;0.82;0.50;;;;;;;28.11;36.70;101124.91;5029065;28;20228;-74
2022/07/13 10:12:25;;;;;;;1.00;0.77;;;;;;;28.04;36.17;101126.44;5033888;28;20630;-74
2022/07/13 10:14:52;;;;;;;0.60;0.52;;;;;;;28.11;36.10;101123.06;5027909;28;20211;-74
2022/07/13 10:17:20;;;;;;;1.95;1.13;;;;;;;28.17;36.47;101118.97;5049539;28;20211;-74
2022/07/13 10:19:52;;;;;;;0.60;0.60;;;;;;;28.01;36.18;101116.88;5030505;28;20290;-74
2022/07/13 10:22:21;;;;;;;0.80;0.80;;;;;;;28.13;37.18;101123.75;5034220;28;20223;-74
2022/07/13 10:24:53;;;;;;;0.60;0.60;;;;;;;28.10;36.17;101117.84;5028200;28;20542;-74
2022/07/13 10:27:21;;;;;;;1.17;0.60;;;;;;;28.17;35.87;101115.44;5027695;28;20188;-74
2022/07/13 10:29:48;;;;;;;0.73;0.57;;;;;;;28.28;35.46;101116.16;5027144;28;20625;-74
2022/07/13 10:32:17;;;;;;;0.68;0.65;;;;;;;28.54;34.79;101120.03;5003970;28;20681;-74
2022/07/13 10:34:52;;;;;;;0.90;0.57;;;;;;;28.67;33.73;101116.06;5031579;28;20613;-74
2022/07/13 10:37:18;;;;;;;0.50;0.50;;;;;;;28.88;34.32;101114.97;5033207;28;20683;-74
2022/07/13 10:40:11;;;;;;;0.60;0.57;;;;;;;28.98;31.79;101117.63;5038474;28;20196;-74
2022/07/13 10:43:09;;;;;;;0.60;0.60;;;;;;;29.03;31.31;101108.13;5034524;28;20663;-75
2022/07/13 10:45:43;;;;;;;0.55;0.52;;;;;;;28.99;31.26;101100.56;5045167;28;20701;-75
2022/07/13 10:48:40;;;;;;;0.65;0.65;;;;;;;28.96;33.26;101099.00;5050344;28;20614;-74
2022/07/13 10:51:17;;;;;;;0.70;0.70;;;;;;;29.11;32.76;101098.50;5056035;28;20396;-75
2022/07/13 10:54:06;;;;;;;0.60;0.60;;;;;;;29.28;34.63;101089.66;5051752;28;20199;-74
2022/07/13 10:56:33;;;;;;;0.70;0.70;;;;;;;29.44;34.11;101081.75;5054839;28;20198;-74
2022/07/13 10:59:02;;;;;;;0.75;0.70;;;;;;;29.60;32.71;101078.41;5061610;28;20211;-74
2022/07/13 11:01:39;;;;;;;0.80;0.80;;;;;;;29.28;32.29;101081.59;5054845;28;20218;-74
2022/07/13 11:04:07;;;;;;;0.60;0.60;;;;;;;29.26;32.04;101068.31;5052376;28;21208;-75
2022/07/13 11:06:36;;;;;;;0.70;0.70;;;;;;;29.25;30.57;101068.47;5057676;28;20608;-75
2022/07/13 11:09:23;;;;;;;0.65;0.65;;;;;;;29.34;31.16;101058.66;5045872;28;20207;-74
2022/07/13 11:11:51;;;;;;;1.02;0.82;;;;;;;29.68;33.19;101055.31;5038609;28;20215;-74
2022/07/13 11:15:00;;;;;;;1.00;0.80;;;;;;;29.65;30.42;101051.91;5049303;28;20697;-74
2022/07/13 11:17:28;;;;;;;0.63;0.63;;;;;;;29.79;28.86;101050.56;5054070;28;20198;-75
2022/07/13 11:20:03;;;;;;;0.80;0.70;;;;;;;29.93;28.83;101048.31;5056330;28;20206;-75
2022/07/13 11:25:42;;;;;;;0.60;0.60;;;;;;;30.24;30.05;101043.31;5050750;28;20619;-74
2022/07/13 11:28:21;;;;;;;1.10;0.70;;;;;;;30.29;29.22;101048.22;5050415;28;20297;-74
2022/07/13 11:30:54;;;;;;;0.65;0.60;;;;;;;30.03;28.41;101038.31;5050179;28;20219;-74
2022/07/13 11:33:20;;;;;;;0.60;0.60;;;;;;;29.99;29.67;101043.16;5064181;28;20203;-74
2022/07/13 11:35:47;;;;;;;0.50;0.50;;;;;;;30.07;29.90;101037.00;5070420;28;20194;-74
2022/07/13 11:38:16;;;;;;;0.45;0.43;;;;;;;30.00;31.06;101031.41;5057408;28;20618;-74
2022/07/13 11:40:44;;;;;;;0.55;0.55;;;;;;;30.01;29.98;101029.56;5065344;28;20664;-74